createdAt,value
2023-04-18T00:01:17.800Z,10.53
2023-04-18T00:03:45.849Z,10.83
2023-04-18T00:06:14.092Z,11.30
2023-04-18T00:08:41.368Z,11.63
2023-04-18T00:11:08.631Z,11.27
2023-04-18T00:13:35.803Z,11.80
2023-04-18T00:16:03.198Z,11.80
2023-04-18T00:18:30.366Z,11.17
2023-04-18T00:20:57.521Z,12.07
2023-04-18T00:23:28.350Z,12.10
2023-04-18T00:25:55.586Z,11.60
2023-04-18T00:28:22.986Z,12.97
2023-04-18T00:30:50.370Z,12.57
2023-04-18T00:33:17.842Z,12.93
2023-04-18T00:35:45.079Z,12.43
2023-04-18T00:38:12.539Z,12.23
2023-04-18T00:40:41.082Z,12.07
2023-04-18T00:43:08.464Z,12.33
2023-04-18T00:45:36.921Z,13.17
2023-04-18T00:48:04.313Z,12.63
2023-04-18T00:50:32.572Z,13.00
2023-04-18T00:52:59.804Z,13.00
2023-04-18T00:55:27.064Z,12.80
2023-04-18T00:57:54.345Z,12.50
2023-04-18T01:00:21.657Z,12.93
2023-04-18T01:02:52.979Z,13.53
2023-04-18T01:05:21.377Z,12.80
2023-04-18T01:07:48.962Z,13.77
2023-04-18T01:10:16.247Z,13.53
2023-04-18T01:12:43.439Z,14.07
2023-04-18T01:15:11.747Z,13.33
2023-04-18T01:17:39.694Z,13.53
2023-04-18T01:20:07.897Z,13.13
2023-04-18T01:22:35.282Z,13.87
2023-04-18T01:25:07.501Z,13.57
2023-04-18T01:27:34.674Z,14.67
2023-04-18T01:30:01.857Z,14.60
2023-04-18T01:32:30.538Z,14.20
2023-04-18T01:34:57.766Z,15.10
2023-04-18T01:37:24.968Z,15.60
2023-04-18T01:39:52.473Z,16.07
2023-04-18T01:42:19.640Z,15.77
2023-04-18T01:44:46.818Z,16.47
2023-04-18T01:47:13.989Z,15.83
2023-04-18T01:49:46.597Z,16.67
2023-04-18T01:52:14.297Z,16.57
2023-04-18T01:54:41.541Z,15.80
2023-04-18T01:57:08.745Z,15.63
2023-04-18T01:59:35.984Z,15.80
2023-04-18T02:02:03.370Z,15.97
2023-04-18T02:04:30.678Z,17.00
2023-04-18T02:06:57.856Z,16.00
2023-04-18T02:09:25.549Z,16.63
2023-04-18T02:11:54.226Z,16.90
2023-04-18T02:14:21.759Z,16.23
2023-04-18T02:16:49.114Z,16.80
2023-04-18T02:19:17.533Z,16.57
2023-04-18T02:21:44.913Z,15.80
2023-04-18T02:24:12.221Z,16.10
2023-04-18T02:26:39.549Z,16.37
2023-04-18T02:29:06.808Z,15.93
2023-04-18T02:31:34.160Z,15.90
2023-04-18T02:34:01.463Z,17.07
2023-04-18T02:36:28.664Z,16.27
2023-04-18T02:38:55.862Z,16.80
2023-04-18T02:41:23.578Z,15.93
2023-04-18T02:43:50.886Z,16.63
2023-04-18T02:46:19.889Z,17.83
2023-04-18T02:48:49.020Z,17.20
2023-04-18T02:51:17.068Z,17.70
2023-04-18T02:53:44.258Z,17.67
2023-04-18T02:56:12.870Z,17.77
2023-04-18T02:58:58.672Z,18.00
2023-04-18T03:01:41.849Z,17.33
2023-04-18T03:04:12.823Z,17.30
2023-04-18T03:06:44.089Z,17.67
2023-04-18T03:09:11.714Z,18.27
2023-04-18T03:11:45.017Z,18.60
2023-04-18T03:14:13.211Z,18.80
2023-04-18T03:16:48.419Z,20.60
2023-04-18T03:19:20.316Z,20.43
2023-04-18T03:21:47.516Z,21.47
2023-04-18T03:24:14.997Z,21.37
2023-04-18T03:26:46.042Z,21.00
2023-04-18T03:29:13.566Z,21.67
2023-04-18T03:31:43.916Z,23.13
2023-04-18T03:34:11.428Z,23.00
2023-04-18T03:36:39.263Z,22.83
2023-04-18T03:39:06.702Z,23.43
2023-04-18T03:41:35.105Z,23.03
2023-04-18T03:44:03.521Z,23.37
2023-04-18T03:46:34.649Z,22.93
2023-04-18T03:49:02.388Z,24.07
2023-04-18T03:51:43.286Z,24.87
2023-04-18T03:54:10.639Z,24.57
2023-04-18T03:56:37.917Z,23.33
2023-04-18T03:59:05.462Z,24.90
2023-04-18T04:01:33.368Z,23.77
2023-04-18T04:04:01.759Z,24.57
2023-04-18T04:06:29.786Z,24.23
2023-04-18T04:08:57.300Z,24.47
2023-04-18T04:11:27.110Z,24.67
2023-04-18T04:13:54.339Z,23.63
2023-04-18T04:16:27.869Z,25.10
2023-04-18T04:18:56.018Z,24.63
2023-04-18T04:21:27.826Z,24.97
2023-04-18T04:23:55.149Z,24.63
2023-04-18T04:26:36.963Z,25.50
2023-04-18T04:29:13.961Z,26.00
2023-04-18T04:31:43.175Z,27.13
2023-04-18T04:34:10.662Z,27.60
2023-04-18T04:36:39.695Z,26.67
2023-04-18T04:39:08.806Z,26.50
2023-04-18T04:42:04.376Z,26.23
2023-04-18T04:44:41.538Z,25.57
2023-04-18T04:47:09.334Z,26.77
2023-04-18T04:49:38.863Z,26.90
2023-04-18T04:52:06.470Z,26.60
2023-04-18T04:54:33.744Z,27.13
2023-04-18T04:57:02.221Z,26.93
2023-04-18T04:59:29.708Z,26.27
2023-04-18T05:01:57.465Z,27.43
2023-04-18T05:04:25.970Z,26.73
2023-04-18T05:06:53.528Z,26.70
2023-04-18T05:09:20.917Z,25.50
2023-04-18T05:11:49.385Z,27.17
2023-04-18T05:14:17.720Z,27.00
2023-04-18T05:16:44.994Z,26.83
2023-04-18T05:19:12.236Z,28.00
2023-04-18T05:21:39.391Z,26.37
2023-04-18T05:24:06.556Z,27.27
2023-04-18T05:26:33.774Z,27.37
2023-04-18T05:29:01.019Z,26.87
2023-04-18T05:31:28.324Z,25.57
2023-04-18T05:33:55.725Z,27.10
2023-04-18T05:36:23.168Z,25.10
2023-04-18T05:38:50.794Z,25.70
2023-04-18T05:41:17.945Z,25.13
2023-04-18T05:43:54.201Z,25.70
2023-04-18T05:46:29.593Z,24.53
2023-04-18T05:48:57.029Z,25.17
2023-04-18T05:51:24.237Z,24.60
2023-04-18T05:53:51.438Z,25.33
2023-04-18T05:56:18.718Z,25.27
2023-04-18T05:58:47.456Z,25.17
2023-04-18T06:01:14.634Z,24.20
2023-04-18T06:03:42.264Z,23.30
2023-04-18T06:06:10.042Z,23.70
2023-04-18T06:08:39.147Z,22.50
2023-04-18T06:11:06.451Z,22.53
2023-04-18T06:13:33.998Z,21.27
2023-04-18T06:16:01.380Z,21.33
2023-04-18T06:18:28.610Z,21.33
2023-04-18T06:20:55.756Z,21.63
2023-04-18T06:23:22.902Z,21.23
2023-04-18T06:25:50.459Z,20.03
2023-04-18T06:28:17.718Z,20.77
2023-04-18T06:30:45.094Z,20.67
2023-04-18T06:33:12.297Z,21.13
2023-04-18T06:35:39.563Z,21.13
2023-04-18T06:38:06.834Z,19.67
2023-04-18T06:40:34.188Z,20.53
2023-04-18T06:43:01.471Z,20.80
2023-04-18T06:45:30.992Z,20.17
2023-04-18T06:47:59.757Z,20.97
2023-04-18T06:50:27.119Z,20.00
2023-04-18T06:52:54.345Z,18.77
2023-04-18T06:55:21.541Z,19.10
2023-04-18T06:57:48.792Z,18.90
2023-04-18T07:00:16.288Z,17.83
2023-04-18T07:02:43.709Z,18.03
2023-04-18T07:05:11.079Z,18.03
2023-04-18T07:07:38.266Z,17.80
2023-04-18T07:10:06.977Z,17.60
2023-04-18T07:12:34.168Z,17.37
2023-04-18T07:15:01.607Z,16.23
2023-04-18T07:17:28.864Z,17.63
2023-04-18T07:19:56.183Z,16.07
2023-04-18T07:22:23.370Z,16.67
2023-04-18T07:24:50.590Z,16.27
2023-04-18T07:27:17.753Z,16.10
2023-04-18T07:29:44.925Z,15.90
2023-04-18T07:32:12.070Z,15.97
2023-04-18T07:34:40.188Z,15.97
2023-04-18T07:37:07.469Z,16.53
2023-04-18T07:39:36.124Z,16.50
2023-04-18T07:42:04.314Z,16.57
2023-04-18T07:44:31.647Z,16.07
2023-04-18T07:46:58.817Z,16.20
2023-04-18T07:49:26.012Z,16.13
2023-04-18T07:51:53.212Z,15.10
2023-04-18T07:54:20.363Z,14.33
2023-04-18T07:56:47.538Z,15.00
2023-04-18T07:59:14.928Z,14.47
2023-04-18T08:01:42.161Z,15.37
2023-04-18T08:04:09.433Z,15.40
2023-04-18T08:06:36.803Z,15.10
2023-04-18T08:09:05.392Z,15.40
2023-04-18T08:11:33.608Z,14.47
2023-04-18T08:14:01.158Z,14.13
2023-04-18T08:16:28.911Z,14.93
2023-04-18T08:18:56.123Z,14.53
2023-04-18T08:21:23.481Z,14.83
2023-04-18T08:23:50.751Z,14.07
2023-04-18T08:26:18.067Z,14.03
2023-04-18T08:28:46.602Z,14.43
2023-04-18T08:31:14.925Z,15.27
2023-04-18T08:33:42.731Z,15.17
2023-04-18T08:36:10.405Z,15.57
2023-04-18T08:38:37.612Z,15.20
2023-04-18T08:41:04.856Z,15.53
2023-04-18T08:43:32.059Z,15.17
2023-04-18T08:46:00.588Z,14.60
2023-04-18T08:48:28.284Z,14.87
2023-04-18T08:50:59.404Z,15.60
2023-04-18T08:53:27.370Z,15.10
2023-04-18T08:55:57.840Z,15.73
2023-04-18T08:58:27.657Z,16.20
2023-04-18T09:00:55.331Z,15.17
2023-04-18T09:03:42.963Z,14.27
2023-04-18T09:06:20.182Z,15.43
2023-04-18T09:09:10.637Z,15.37
2023-04-18T09:11:37.878Z,14.77
2023-04-18T09:14:05.661Z,14.77
2023-04-18T09:16:46.847Z,15.07
2023-04-18T09:19:19.059Z,15.33
2023-04-18T09:21:47.165Z,15.17
2023-04-18T09:24:26.255Z,14.13
2023-04-18T09:26:55.729Z,14.53
2023-04-18T09:29:46.935Z,13.83
2023-04-18T09:32:29.396Z,13.67
2023-04-18T09:35:00.593Z,14.63
2023-04-18T09:37:29.713Z,13.33
2023-04-18T09:39:56.904Z,12.70
2023-04-18T09:42:26.128Z,13.80
2023-04-18T09:45:01.182Z,12.93
2023-04-18T09:47:28.531Z,13.30
2023-04-18T09:49:55.848Z,13.83
2023-04-18T09:52:25.793Z,13.33
2023-04-18T09:54:58.469Z,14.00
2023-04-18T09:57:28.897Z,13.37
2023-04-18T10:00:24.164Z,13.33
2023-04-18T10:02:58.578Z,12.77
2023-04-18T10:05:28.576Z,13.30
2023-04-18T10:07:56.669Z,12.83
2023-04-18T10:10:24.586Z,12.93
2023-04-18T10:12:55.162Z,13.47
2023-04-18T10:15:24.615Z,14.17
2023-04-18T10:18:14.112Z,13.33
2023-04-18T10:20:41.847Z,13.73
2023-04-18T10:23:30.978Z,13.03
2023-04-18T10:25:59.118Z,13.63
2023-04-18T10:28:27.989Z,13.13
2023-04-18T10:31:05.607Z,14.10
2023-04-18T10:33:52.812Z,13.87
2023-04-18T10:36:28.893Z,16.80
2023-04-18T10:39:20.370Z,18.37
2023-04-18T10:41:51.433Z,18.40
2023-04-18T10:44:22.116Z,16.17
2023-04-18T10:46:52.356Z,13.80
2023-04-18T10:49:30.284Z,13.10
2023-04-18T10:52:00.899Z,14.13
2023-04-18T10:54:48.918Z,14.50
2023-04-18T10:57:16.113Z,13.20
2023-04-18T10:59:49.850Z,14.93
2023-04-18T11:02:29.944Z,14.60
2023-04-18T11:05:04.546Z,13.40
2023-04-18T11:07:46.189Z,13.40
2023-04-18T11:10:16.297Z,12.70
2023-04-18T11:12:43.557Z,12.57
2023-04-18T11:15:17.300Z,12.50
2023-04-18T11:17:44.772Z,12.73
2023-04-18T11:20:14.319Z,12.33
2023-04-18T11:22:48.945Z,11.93
2023-04-18T11:25:17.432Z,12.33
2023-04-18T11:27:46.365Z,11.43
2023-04-18T11:30:14.939Z,11.00
2023-04-18T11:32:42.135Z,11.30
2023-04-18T11:35:10.906Z,10.77
2023-04-18T11:37:39.530Z,11.83
2023-04-18T11:40:09.782Z,10.30
2023-04-18T11:42:39.223Z,10.90
2023-04-18T11:45:15.889Z,10.43
2023-04-18T11:47:43.609Z,11.07
2023-04-18T11:50:12.623Z,10.57
2023-04-18T11:52:42.229Z,11.27
2023-04-18T11:55:13.897Z,10.70
2023-04-18T11:57:41.845Z,9.83
2023-04-18T12:00:12.110Z,10.93
2023-04-18T12:02:44.870Z,9.50
2023-04-18T12:05:14.622Z,10.37
2023-04-18T12:07:44.755Z,9.60
2023-04-18T12:10:30.385Z,9.37
2023-04-18T12:12:58.820Z,9.80
2023-04-18T12:15:28.483Z,9.53
2023-04-18T12:18:00.651Z,9.30
2023-04-18T12:20:54.528Z,9.03
2023-04-18T12:23:36.012Z,8.93
2023-04-18T12:26:07.169Z,8.97
2023-04-18T12:28:35.164Z,9.30
2023-04-18T12:31:02.958Z,9.20
2023-04-18T12:33:30.512Z,9.47
2023-04-18T12:35:57.727Z,8.70
2023-04-18T12:38:24.959Z,8.63
2023-04-18T12:40:52.496Z,8.90
2023-04-18T12:43:20.053Z,9.50
2023-04-18T12:45:47.439Z,8.90
2023-04-18T12:48:14.718Z,8.90
2023-04-18T12:50:41.977Z,9.13
2023-04-18T12:53:09.171Z,9.47
2023-04-18T12:55:36.727Z,9.17
2023-04-18T12:58:04.081Z,8.60
2023-04-18T13:00:32.663Z,9.00
2023-04-18T13:03:00.156Z,8.60
2023-04-18T13:05:32.527Z,8.13
2023-04-18T13:10:31.334Z,8.43
2023-04-18T13:12:58.515Z,8.43
2023-04-18T13:15:27.244Z,8.47
2023-04-18T13:17:56.362Z,8.30
2023-04-18T13:20:23.735Z,8.40
2023-04-18T13:22:50.894Z,7.57
2023-04-18T13:25:18.273Z,7.80
2023-04-18T13:27:45.893Z,8.20
2023-04-18T13:30:13.347Z,8.20
2023-04-18T13:32:42.158Z,8.77
2023-04-18T13:35:11.090Z,8.17
2023-04-18T13:37:39.111Z,8.60
2023-04-18T13:40:07.072Z,7.50
2023-04-18T13:42:35.988Z,7.70
2023-04-18T13:45:03.818Z,6.97
2023-04-18T13:47:31.205Z,7.40
2023-04-18T13:49:58.517Z,7.37
2023-04-18T13:52:26.077Z,8.03
2023-04-18T13:54:53.340Z,8.27
2023-04-18T13:57:20.820Z,7.97
2023-04-18T13:59:48.045Z,8.03
2023-04-18T14:02:15.707Z,7.73
2023-04-18T14:04:43.089Z,7.33
2023-04-18T14:07:10.683Z,7.70
2023-04-18T14:09:38.005Z,8.47
2023-04-18T14:12:06.160Z,8.30
2023-04-18T14:14:33.301Z,8.20
2023-04-18T14:17:00.540Z,9.43
2023-04-18T14:19:27.800Z,8.10
2023-04-18T14:21:55.036Z,8.00
2023-04-18T14:24:23.309Z,8.27
2023-04-18T14:26:50.489Z,8.37
2023-04-18T14:29:17.685Z,8.93
2023-04-18T14:31:45.122Z,8.23
2023-04-18T14:34:12.328Z,8.60
2023-04-18T14:36:39.477Z,8.40
2023-04-18T14:39:06.806Z,8.20
2023-04-18T14:41:33.997Z,8.30
2023-04-18T14:44:01.251Z,7.70
2023-04-18T14:46:29.123Z,7.93
2023-04-18T14:48:56.994Z,7.93
2023-04-18T14:51:24.353Z,7.73
2023-04-18T14:53:51.644Z,8.17
2023-04-18T14:56:21.408Z,8.60
2023-04-18T14:58:48.733Z,7.93
2023-04-18T15:01:17.440Z,7.67
2023-04-18T15:03:45.603Z,8.07
2023-04-18T15:06:13.134Z,7.67
2023-04-18T15:08:40.558Z,8.00
2023-04-18T15:11:08.642Z,7.93
2023-04-18T15:13:36.196Z,7.73
2023-04-18T15:16:03.524Z,7.43
2023-04-18T15:18:30.765Z,7.40
2023-04-18T15:20:59.848Z,7.97
2023-04-18T15:23:27.473Z,8.40
2023-04-18T15:25:54.859Z,7.57
2023-04-18T15:28:22.060Z,8.30
2023-04-18T15:30:49.231Z,8.03
2023-04-18T15:33:17.942Z,8.00
2023-04-18T15:35:45.948Z,8.43
2023-04-18T15:38:13.429Z,8.27
2023-04-18T15:40:40.834Z,8.17
2023-04-18T15:43:08.099Z,8.47
2023-04-18T15:45:35.951Z,8.37
2023-04-18T15:48:03.204Z,8.50
2023-04-18T15:50:32.180Z,7.90
2023-04-18T15:53:01.415Z,8.40
2023-04-18T15:55:28.607Z,8.83
2023-04-18T15:57:56.432Z,9.43
2023-04-18T16:00:24.170Z,8.77
2023-04-18T16:02:51.854Z,8.50
2023-04-18T16:05:19.387Z,8.47
2023-04-18T16:07:46.577Z,8.10
2023-04-18T16:10:15.154Z,9.40
2023-04-18T16:12:42.468Z,8.97
2023-04-18T16:15:10.410Z,8.23
2023-04-18T16:17:37.992Z,8.70
2023-04-18T16:20:06.207Z,8.70
2023-04-18T16:22:33.659Z,8.93
2023-04-18T16:25:00.860Z,8.60
2023-04-18T16:27:28.396Z,9.83
2023-04-18T16:29:55.715Z,10.10
2023-04-18T16:32:22.947Z,8.70
2023-04-18T16:34:50.248Z,9.57
2023-04-18T16:37:17.534Z,8.90
2023-04-18T16:39:44.679Z,9.03
2023-04-18T16:42:14.022Z,7.97
2023-04-18T16:44:44.581Z,9.03
2023-04-18T16:47:11.857Z,9.17
2023-04-18T16:49:39.056Z,8.43
2023-04-18T16:52:06.254Z,8.40
2023-04-18T16:54:33.426Z,8.13
2023-04-18T16:57:01.596Z,9.67
2023-04-18T16:59:28.770Z,10.63
2023-04-18T17:01:56.063Z,8.47
2023-04-18T17:04:26.619Z,7.47
2023-04-18T17:06:53.870Z,7.07
2023-04-18T17:09:21.234Z,7.27
2023-04-18T17:11:48.870Z,7.50
2023-04-18T17:14:17.336Z,7.93
2023-04-18T17:16:44.705Z,7.63
2023-04-18T17:19:12.131Z,8.03
2023-04-18T17:21:39.439Z,7.90
2023-04-18T17:24:07.243Z,7.77
2023-04-18T17:26:35.621Z,8.17
2023-04-18T17:29:04.038Z,8.70
2023-04-18T17:31:32.054Z,8.57
2023-04-18T17:33:59.914Z,9.03
2023-04-18T17:36:27.138Z,9.00
2023-04-18T17:38:54.334Z,8.90
2023-04-18T17:41:21.896Z,9.10
2023-04-18T17:43:50.942Z,8.83
2023-04-18T17:46:18.424Z,8.43
2023-04-18T17:48:45.728Z,8.77
2023-04-18T17:51:12.916Z,9.73
2023-04-18T17:53:40.078Z,9.53
2023-04-18T17:56:07.272Z,9.23
2023-04-18T17:58:34.439Z,9.70
2023-04-18T18:01:01.664Z,10.43
2023-04-18T18:03:28.986Z,9.57
2023-04-18T18:05:56.317Z,10.97
2023-04-18T18:08:24.175Z,10.30
2023-04-18T18:10:51.403Z,11.30
2023-04-18T18:13:18.536Z,10.00
2023-04-18T18:15:45.765Z,16.83
2023-04-18T18:18:26.911Z,11.63
2023-04-18T18:20:54.658Z,11.73
2023-04-18T18:23:22.073Z,11.80
2023-04-18T18:25:50.576Z,11.77
2023-04-18T18:28:17.798Z,12.40
2023-04-18T18:30:44.996Z,11.87
2023-04-18T18:33:12.144Z,11.67
2023-04-18T18:35:39.352Z,11.40
2023-04-18T18:38:07.043Z,12.00
2023-04-18T18:40:34.254Z,11.10
2023-04-18T18:43:01.417Z,12.30
2023-04-18T18:45:28.725Z,13.50
2023-04-18T18:47:56.122Z,13.47
2023-04-18T18:50:23.306Z,12.20
2023-04-18T18:52:50.504Z,11.37
2023-04-18T18:55:18.864Z,12.13
2023-04-18T18:57:46.528Z,11.37
2023-04-18T19:00:14.200Z,11.37
2023-04-18T19:02:41.580Z,10.23
2023-04-18T19:05:09.436Z,12.83
2023-04-18T19:07:36.678Z,12.70
2023-04-18T19:10:04.631Z,12.80
2023-04-18T19:12:31.913Z,12.43
2023-04-18T19:14:59.057Z,12.33
2023-04-18T19:17:26.229Z,12.13
2023-04-18T19:19:53.486Z,13.20
2023-04-18T19:22:20.667Z,11.10
2023-04-18T19:24:47.968Z,11.40
2023-04-18T19:27:15.235Z,11.53
2023-04-18T19:29:42.509Z,12.20
2023-04-18T19:32:09.828Z,10.80
2023-04-18T19:34:37.625Z,10.97
2023-04-18T19:37:04.904Z,11.83
2023-04-18T19:39:32.263Z,10.73
2023-04-18T19:41:59.481Z,10.87
2023-04-18T19:44:26.663Z,11.13
2023-04-18T19:46:53.802Z,10.70
2023-04-18T19:49:22.336Z,12.50
2023-04-18T19:51:51.314Z,11.77
2023-04-18T19:54:21.625Z,13.67
2023-04-18T19:56:49.474Z,14.73
2023-04-18T19:59:16.766Z,15.17
2023-04-18T20:01:44.278Z,12.30
2023-04-18T20:04:11.673Z,12.80
2023-04-18T20:06:38.970Z,12.63
2023-04-18T20:09:06.261Z,11.73
2023-04-18T20:11:33.579Z,11.70
2023-04-18T20:14:00.907Z,12.47
2023-04-18T20:16:28.886Z,12.30
2023-04-18T20:18:56.488Z,12.60
2023-04-18T20:21:23.684Z,12.90
2023-04-18T20:23:51.026Z,13.30
2023-04-18T20:26:18.219Z,13.57
2023-04-18T20:28:45.489Z,12.80
2023-04-18T20:31:12.743Z,14.00
2023-04-18T20:33:40.022Z,15.97
2023-04-18T20:36:08.112Z,14.70
2023-04-18T20:38:36.838Z,15.17
2023-04-18T20:41:04.130Z,13.13
2023-04-18T20:43:36.448Z,12.87
2023-04-18T20:46:03.706Z,14.10
2023-04-18T20:48:30.927Z,24.67
2023-04-18T20:50:58.093Z,17.20
2023-04-18T20:53:26.932Z,15.40
2023-04-18T20:55:55.070Z,15.17
2023-04-18T20:58:22.236Z,14.03
2023-04-18T21:00:49.483Z,13.17
2023-04-18T21:03:17.056Z,14.13
2023-04-18T21:05:44.959Z,13.47
2023-04-18T21:08:12.486Z,14.97
2023-04-18T21:10:39.697Z,14.20
2023-04-18T21:13:07.041Z,13.90
2023-04-18T21:15:35.666Z,12.90
2023-04-18T21:18:03.051Z,13.23
2023-04-18T21:20:30.384Z,12.50
2023-04-18T21:22:57.517Z,12.33
2023-04-18T21:25:24.723Z,13.83
2023-04-18T21:27:51.884Z,13.33
2023-04-18T21:30:20.329Z,12.37
2023-04-18T21:32:49.335Z,14.77
2023-04-18T21:35:19.202Z,13.60
2023-04-18T21:37:47.649Z,13.80
2023-04-18T21:40:14.985Z,13.73
2023-04-18T21:42:42.414Z,13.13
2023-04-18T21:45:10.810Z,12.83
2023-04-18T21:47:38.456Z,13.03
2023-04-18T21:50:06.395Z,13.03
2023-04-18T21:52:33.829Z,14.23
2023-04-18T21:55:01.030Z,13.67
2023-04-18T21:57:28.215Z,12.63
2023-04-18T21:59:57.343Z,13.73
2023-04-18T22:02:25.770Z,13.40
2023-04-18T22:04:53.204Z,13.20
2023-04-18T22:07:20.386Z,12.97
2023-04-18T22:09:47.646Z,13.03
2023-04-18T22:12:15.435Z,12.63
2023-04-18T22:14:48.079Z,13.03
2023-04-18T22:17:15.508Z,13.27
2023-04-18T22:19:44.286Z,12.90
2023-04-18T22:22:11.557Z,12.87
2023-04-18T22:24:38.894Z,12.40
2023-04-18T22:27:06.176Z,12.30
2023-04-18T22:29:33.391Z,12.40
2023-04-18T22:32:00.570Z,12.30
2023-04-18T22:34:27.748Z,12.30
2023-04-18T22:36:54.917Z,11.87
2023-04-18T22:39:22.104Z,11.23
2023-04-18T22:41:49.279Z,11.77
2023-04-18T22:44:16.649Z,11.73
2023-04-18T22:46:44.489Z,12.47
2023-04-18T22:49:11.782Z,11.23
2023-04-18T22:51:39.288Z,11.13
2023-04-18T22:54:06.475Z,10.50
2023-04-18T22:56:33.620Z,11.63
2023-04-18T22:59:00.886Z,11.73
2023-04-18T23:01:28.172Z,11.27
2023-04-18T23:03:55.785Z,11.37
2023-04-18T23:06:23.351Z,11.97
2023-04-18T23:08:50.498Z,10.97
2023-04-18T23:11:17.714Z,11.63
2023-04-18T23:13:44.977Z,12.00
2023-04-18T23:16:12.286Z,11.47
2023-04-18T23:18:39.473Z,11.63
2023-04-18T23:21:06.702Z,11.60
2023-04-18T23:23:33.913Z,12.27
2023-04-18T23:26:01.135Z,11.77
2023-04-18T23:28:28.357Z,12.17
2023-04-18T23:30:55.568Z,11.93
2023-04-18T23:33:22.743Z,11.23
2023-04-18T23:35:49.924Z,11.60
2023-04-18T23:38:17.152Z,11.73
2023-04-18T23:40:44.551Z,12.07
2023-04-18T23:43:11.724Z,11.83
2023-04-18T23:45:38.893Z,12.53
2023-04-18T23:48:06.882Z,13.30
2023-04-18T23:50:44.176Z,13.10
2023-04-18T23:53:11.349Z,13.13
2023-04-18T23:55:38.893Z,13.43
2023-04-18T23:58:06.061Z,12.47
